Time;durP1;ratioP1;P1;durP2;ratioP2;P2;SDS_P1;SDS_P2;PMS_P1;PMS_P2;Temp;Humidity;BMP_temperature;BMP_pressure;BME280_temperature;BME280_humidity;BME280_pressure;Samples;Min_cycle;Max_cycle;Signal;HPM_P1;HPM_P2
2021/10/30 00:01:08;;;;;;;;;19.00;17.75;;;;;15.27;71.93;99563.53;5075772;28;45522;-79
2021/10/30 00:03:33;;;;;;;;;18.25;15.50;;;;;15.24;71.93;99550.66;5075656;28;45570;-79
2021/10/30 00:05:59;;;;;;;;;19.75;18.25;;;;;15.28;71.83;99559.91;5075436;28;45537;-79
2021/10/30 00:11:45;;;;;;;;;18.75;18.25;;;;;15.23;71.84;99543.72;5075168;28;45596;-78
2021/10/30 00:14:11;;;;;;;;;18.50;17.25;;;;;15.13;71.83;99523.63;5075499;28;45542;-77
2021/10/30 00:16:36;;;;;;;;;20.00;17.50;;;;;15.22;71.77;99534.19;5075183;28;46341;-77
2021/10/30 00:19:02;;;;;;;;;17.75;15.75;;;;;15.25;71.86;99536.50;5075147;28;45729;-77
2021/10/30 00:21:27;;;;;;;;;16.25;15.00;;;;;15.25;71.78;99529.41;5075330;28;45550;-77
2021/10/30 00:27:15;;;;;;;;;19.00;17.75;;;;;15.26;71.90;99522.31;5072559;28;45629;-77
2021/10/30 00:29:40;;;;;;;;;19.25;16.75;;;;;15.23;71.80;99506.78;5075147;28;46125;-78
2021/10/30 00:32:07;;;;;;;;;18.50;16.25;;;;;15.26;71.93;99514.41;5074571;28;45586;-77
2021/10/30 00:34:33;;;;;;;;;19.00;17.00;;;;;15.27;71.78;99513.41;5074592;28;45859;-77
2021/10/30 00:36:58;;;;;;;;;21.25;19.75;;;;;15.26;71.99;99509.94;5074495;28;45595;-78
2021/10/30 00:39:23;;;;;;;;;18.25;17.00;;;;;15.26;72.14;99506.47;5074645;28;46011;-76
2021/10/30 00:41:51;;;;;;;;;18.50;17.50;;;;;15.18;71.99;99496.72;5074310;28;45799;-78
2021/10/30 00:44:18;;;;;;;;;16.00;15.00;;;;;15.26;72.04;99515.22;5074922;28;45537;-78
2021/10/30 00:46:45;;;;;;;;;16.50;16.00;;;;;15.22;72.07;99499.88;5074546;28;45953;-79
2021/10/30 00:49:12;;;;;;;;;17.50;14.50;;;;;15.23;71.77;99493.59;5075119;28;46447;-79
2021/10/30 00:51:39;;;;;;;;;17.25;14.75;;;;;15.28;71.80;99491.28;5074746;28;45628;-78
2021/10/30 00:57:28;;;;;;;;;16.00;15.00;;;;;15.28;72.07;99497.38;5074536;28;45680;-78
2021/10/30 00:59:54;;;;;;;;;15.50;14.00;;;;;15.29;71.98;99498.22;5074709;28;45931;-78
2021/10/30 01:02:20;;;;;;;;;15.00;14.00;;;;;15.28;71.80;99489.47;5074928;28;45773;-79
2021/10/30 01:04:47;;;;;;;;;14.75;14.25;;;;;15.29;71.90;99475.28;5075197;28;45526;-78
2021/10/30 01:07:12;;;;;;;;;15.25;14.00;;;;;15.27;71.74;99479.09;5075274;28;47479;-79
2021/10/30 01:09:39;;;;;;;;;14.75;13.25;;;;;15.27;71.98;99477.28;5056995;28;47736;-80
2021/10/30 01:12:05;;;;;;;;;17.00;14.25;;;;;15.28;72.10;99471.00;5075519;28;45613;-76
2021/10/30 01:14:30;;;;;;;;;15.00;14.00;;;;;15.29;72.32;99463.91;5076372;28;45786;-77
2021/10/30 01:16:58;;;;;;;;;13.75;12.50;;;;;15.29;72.29;99470.00;5075180;28;46454;-77
2021/10/30 01:19:24;;;;;;;;;13.50;13.25;;;;;15.26;71.99;99457.16;5075437;28;46174;-78
2021/10/30 01:21:50;;;;;;;;;11.75;10.75;;;;;15.30;72.36;99461.09;5074787;28;45574;-77
2021/10/30 01:27:38;;;;;;;;;13.50;12.00;;;;;15.18;72.26;99435.22;5072900;28;46153;-79
2021/10/30 01:30:03;;;;;;;;;10.75;10.25;;;;;15.23;72.31;99435.53;5074538;28;45679;-79
2021/10/30 01:32:29;;;;;;;;;14.50;12.00;;;;;15.14;72.29;99413.63;5073765;28;45678;-79
2021/10/30 01:34:54;;;;;;;;;12.00;9.75;;;;;15.26;72.24;99430.78;5055736;28;45963;-77
2021/10/30 01:37:20;;;;;;;;;14.00;13.25;;;;;15.31;72.29;99436.38;5056056;28;46866;-77
2021/10/30 01:43:07;;;;;;;;;13.50;10.75;;;;;15.21;72.37;99419.06;5073673;28;45653;-79
2021/10/30 01:45:33;;;;;;;;;13.00;10.00;;;;;15.31;72.13;99431.09;5075897;28;45515;-78
2021/10/30 01:47:59;;;;;;;;;11.00;10.00;;;;;15.22;72.32;99418.91;5077599;28;45825;-78
2021/10/30 01:50:25;;;;;;;;;10.50;9.00;;;;;15.31;72.34;99427.63;5059359;28;46404;-78
2021/10/30 01:52:52;;;;;;;;;13.00;11.00;;;;;15.26;72.48;99412.31;5077541;28;45599;-77
2021/10/30 01:55:19;;;;;;;;;11.00;10.50;;;;;15.31;72.60;99409.16;5077702;28;45540;-77
2021/10/30 01:57:46;;;;;;;;;10.50;10.00;;;;;15.30;72.36;99407.50;5077533;28;45574;-78
2021/10/30 02:00:12;;;;;;;;;12.25;12.00;;;;;15.27;72.56;99406.03;5077505;28;45507;-79
2021/10/30 02:02:37;;;;;;;;;11.25;10.00;;;;;15.31;72.55;99399.44;5077444;28;45934;-80
2021/10/30 02:05:04;;;;;;;;;12.25;11.50;;;;;15.30;72.78;99389.03;5077783;28;45881;-78
2021/10/30 02:07:29;;;;;;;;;9.00;8.75;;;;;15.28;72.51;99383.09;5077031;28;46404;-78
2021/10/30 02:13:16;;;;;;;;;12.50;11.00;;;;;15.30;72.52;99373.19;5076873;28;45530;-78
2021/10/30 02:15:42;;;;;;;;;15.00;13.00;;;;;15.29;72.63;99358.34;5077263;28;45476;-79
2021/10/30 02:18:07;;;;;;;;;11.25;9.75;;;;;15.32;72.77;99368.59;5076921;28;45502;-77
2021/10/30 02:20:34;;;;;;;;;14.75;10.75;;;;;15.30;72.99;99354.72;5076772;28;45692;-77
2021/10/30 02:23:00;;;;;;;;;12.25;10.75;;;;;15.32;72.88;99358.03;5076328;28;45530;-76
2021/10/30 02:25:26;;;;;;;;;10.25;9.75;;;;;15.34;72.72;99350.75;5077163;28;45565;-78
2021/10/30 02:27:52;;;;;;;;;8.50;8.50;;;;;15.27;72.76;99336.59;5076930;28;46150;-76
2021/10/30 02:30:18;;;;;;;;;8.00;8.00;;;;;15.25;72.72;99326.22;5077138;28;46080;-78
2021/10/30 02:32:44;;;;;;;;;11.00;10.25;;;;;15.34;72.67;99337.56;5076636;28;45634;-78
2021/10/30 02:35:11;;;;;;;;;12.00;11.00;;;;;15.32;72.78;99336.91;5077198;28;45684;-77
2021/10/30 02:37:38;;;;;;;;;11.00;9.25;;;;;15.37;72.78;99330.13;5076809;28;45557;-77
2021/10/30 02:43:25;;;;;;;;;10.50;10.50;;;;;15.31;73.03;99309.69;5079906;28;45711;-78
2021/10/30 02:45:50;;;;;;;;;11.50;11.00;;;;;15.31;73.10;99314.97;5081030;28;45493;-79
2021/10/30 02:48:16;;;;;;;;;11.00;11.00;;;;;15.24;72.71;99297.34;5080252;28;45565;-77
2021/10/30 02:50:41;;;;;;;;;9.75;8.50;;;;;15.38;72.94;99320.41;5079690;28;45825;-78
2021/10/30 02:53:06;;;;;;;;;11.75;11.00;;;;;15.36;73.12;99312.66;5076260;28;45427;-78
2021/10/30 02:55:32;;;;;;;;;11.25;9.25;;;;;15.39;72.91;99303.53;5076384;28;45486;-77
2021/10/30 02:57:57;;;;;;;;;11.75;10.25;;;;;15.37;73.06;99298.47;5076458;28;46738;-79
2021/10/30 03:00:22;;;;;;;;;13.00;11.50;;;;;15.40;72.84;99300.75;5077076;28;46499;-78
2021/10/30 03:02:48;;;;;;;;;10.75;10.00;;;;;15.39;73.02;99290.34;5076871;28;45821;-79
2021/10/30 03:05:14;;;;;;;;;15.00;13.25;;;;;15.35;73.15;99284.59;5077529;28;45667;-79
2021/10/30 03:07:39;;;;;;;;;13.00;11.75;;;;;15.35;73.05;99270.59;5076767;28;45861;-78
2021/10/30 03:13:27;;;;;;;;;13.00;12.25;;;;;15.32;73.20;99247.19;5080983;28;45587;-78
2021/10/30 03:15:56;;;;;;;;;11.00;11.00;;;;;15.20;73.16;99228.28;5078591;28;45804;-78
2021/10/30 03:18:22;;;;;;;;;11.00;10.00;;;;;15.35;73.09;99249.47;5078251;28;45631;-79
2021/10/30 03:20:48;;;;;;;;;12.00;12.00;;;;;15.31;73.06;99240.25;5080151;28;45555;-75
2021/10/30 03:23:14;;;;;;;;;10.50;10.50;;;;;15.34;72.99;99242.53;5078842;28;45784;-78
2021/10/30 03:29:02;;;;;;;;;14.50;13.00;;;;;15.31;73.10;99225.25;5062893;28;46037;-78
2021/10/30 03:31:27;;;;;;;;;12.25;11.25;;;;;15.30;73.27;99233.34;5055387;28;46050;-79
2021/10/30 03:33:52;;;;;;;;;11.00;11.00;;;;;15.27;73.09;99218.69;5055604;28;45768;-78
2021/10/30 03:36:18;;;;;;;;;9.25;9.00;;;;;15.28;73.08;99203.66;5055617;28;45604;-78
2021/10/30 03:38:43;;;;;;;;;13.50;13.00;;;;;15.23;73.27;99198.91;5055367;28;46841;-78
2021/10/30 03:41:08;;;;;;;;;11.00;10.00;;;;;15.28;73.33;99204.47;5037024;28;47451;-78
2021/10/30 03:43:34;;;;;;;;;10.25;9.25;;;;;15.23;73.12;99190.16;5055422;28;45492;-77
2021/10/30 03:46:00;;;;;;;;;11.50;10.75;;;;;15.27;73.08;99196.75;5037262;28;45618;-78
2021/10/30 03:48:25;;;;;;;;;14.00;11.25;;;;;15.27;73.16;99194.13;5055522;28;45509;-79
2021/10/30 03:50:51;;;;;;;;;11.00;11.00;;;;;15.25;72.83;99199.56;5055327;28;45603;-78
2021/10/30 03:53:18;;;;;;;;;11.25;11.25;;;;;15.26;73.01;99203.03;5055311;28;45810;-78
2021/10/30 03:59:06;;;;;;;;;13.00;10.00;;;;;15.08;73.14;99180.34;5054767;28;46174;-78
2021/10/30 04:01:31;;;;;;;;;12.75;10.75;;;;;15.17;73.03;99190.88;5055096;28;46093;-78
2021/10/30 04:03:56;;;;;;;;;12.25;11.00;;;;;15.24;73.06;99202.34;5055123;28;45675;-78
2021/10/30 04:06:22;;;;;;;;;11.00;9.00;;;;;15.23;73.23;99203.34;5037047;28;45734;-78
2021/10/30 04:08:47;;;;;;;;;11.75;9.00;;;;;15.21;73.06;99206.19;5053704;28;47082;-79
2021/10/30 04:11:13;;;;;;;;;11.75;10.25;;;;;14.95;73.09;99150.25;5054943;28;45764;-79
2021/10/30 04:13:38;;;;;;;;;10.75;8.75;;;;;15.22;73.05;99199.09;5054684;28;45807;-78
2021/10/30 04:16:04;;;;;;;;;8.00;7.00;;;;;15.10;73.09;99183.66;5055119;28;45760;-76
2021/10/30 04:18:29;;;;;;;;;10.00;9.50;;;;;15.21;72.95;99193.00;5054905;28;45522;-79
2021/10/30 04:20:55;;;;;;;;;8.00;7.75;;;;;15.22;72.96;99193.81;5055726;28;46205;-78
2021/10/30 04:23:20;;;;;;;;;10.75;10.00;;;;;15.22;73.12;99193.81;5039682;28;45924;-78
2021/10/30 04:29:08;;;;;;;;;11.00;9.25;;;;;15.18;72.95;99193.31;5069716;28;45624;-77
2021/10/30 04:31:34;;;;;;;;;10.75;9.75;;;;;15.22;73.09;99201.72;5074997;28;46084;-78
2021/10/30 04:34:04;;;;;;;;;9.00;9.00;;;;;15.21;72.91;99203.53;5075278;28;45542;-79
2021/10/30 04:36:32;;;;;;;;;11.00;10.00;;;;;15.18;73.05;99192.50;5075073;28;45521;-77
2021/10/30 04:38:59;;;;;;;;;10.75;9.00;;;;;15.16;72.95;99189.22;5074904;28;45680;-77
2021/10/30 04:44:48;;;;;;;;;10.25;9.00;;;;;15.16;73.06;99179.50;5074772;28;45551;-78
2021/10/30 04:47:16;;;;;;;;;8.00;8.00;;;;;15.19;73.21;99194.97;5075013;28;45581;-77
2021/10/30 04:49:43;;;;;;;;;10.75;10.00;;;;;15.12;73.08;99186.09;5074886;28;45666;-79
2021/10/30 04:52:09;;;;;;;;;9.25;8.50;;;;;15.18;73.02;99195.13;5074686;28;45980;-79
2021/10/30 04:54:34;;;;;;;;;8.75;8.00;;;;;15.16;73.18;99187.41;5074571;28;45808;-80
2021/10/30 04:56:59;;;;;;;;;10.50;10.25;;;;;14.97;73.24;99149.09;5075135;28;45730;-79
2021/10/30 04:59:25;;;;;;;;;8.50;7.75;;;;;15.14;73.08;99173.56;5074965;28;46216;-78
2021/10/30 05:01:50;;;;;;;;;9.00;8.00;;;;;15.12;73.21;99170.25;5074522;28;46126;-77
2021/10/30 05:04:16;;;;;;;;;8.00;7.75;;;;;15.05;73.14;99148.22;5074889;28;45648;-78
2021/10/30 05:06:41;;;;;;;;;8.25;8.25;;;;;15.13;73.24;99158.72;5074588;28;45635;-76
2021/10/30 05:09:07;;;;;;;;;7.00;7.00;;;;;15.13;73.34;99164.81;5074672;28;47308;-78
2021/10/30 05:14:54;;;;;;;;;8.75;8.75;;;;;15.12;73.55;99157.06;5074250;28;45535;-76
2021/10/30 05:17:19;;;;;;;;;8.75;7.75;;;;;15.12;73.30;99155.25;5074305;28;45594;-75
2021/10/30 05:19:44;;;;;;;;;9.00;8.25;;;;;15.15;73.30;99150.63;5076384;28;45617;-76
2021/10/30 05:22:10;;;;;;;;;9.00;8.00;;;;;15.08;73.61;99142.59;5059296;28;46313;-76
2021/10/30 05:24:35;;;;;;;;;7.75;7.00;;;;;15.17;73.25;99156.56;5078024;28;45778;-76
2021/10/30 05:27:00;;;;;;;;;8.00;7.50;;;;;15.15;73.63;99153.28;5078437;28;45486;-77
2021/10/30 05:29:26;;;;;;;;;8.75;7.50;;;;;15.17;73.32;99154.72;5077888;28;45531;-77
2021/10/30 05:31:51;;;;;;;;;7.25;7.00;;;;;15.06;73.57;99134.06;5077848;28;46275;-77
2021/10/30 05:34:17;;;;;;;;;8.00;8.00;;;;;15.18;73.65;99155.56;5078514;28;45534;-77
2021/10/30 05:36:42;;;;;;;;;8.50;7.75;;;;;15.18;73.66;99155.56;5078947;28;45689;-78
2021/10/30 05:39:14;;;;;;;;;6.50;6.50;;;;;15.16;73.53;99147.84;5077692;28;45584;-77
2021/10/30 05:45:03;;;;;;;;;7.00;6.00;;;;;15.15;73.48;99143.56;5078543;28;45688;-78
2021/10/30 05:47:28;;;;;;;;;7.75;7.00;;;;;15.21;73.62;99155.22;5077949;28;45800;-78
2021/10/30 05:49:54;;;;;;;;;7.75;7.25;;;;;15.20;73.77;99149.13;5077351;28;47252;-79
2021/10/30 05:52:19;;;;;;;;;7.25;7.25;;;;;15.22;73.49;99154.25;5077353;28;46183;-77
2021/10/30 05:54:44;;;;;;;;;9.25;7.00;;;;;15.23;73.81;99148.75;5078459;28;45675;-78
2021/10/30 06:00:32;;;;;;;;;6.50;6.50;;;;;15.25;73.73;99140.69;5078239;28;45956;-78
2021/10/30 06:02:59;;;;;;;;;3.25;3.00;;;;;15.24;73.77;99142.50;5079879;28;45626;-78
2021/10/30 06:05:25;;;;;;;;;8.00;7.25;;;;;15.23;73.66;99137.38;5080782;28;45539;-77
2021/10/30 06:07:50;;;;;;;;;9.00;7.75;;;;;15.25;73.82;99138.88;5080251;28;45680;-76
2021/10/30 06:10:15;;;;;;;;;7.75;7.00;;;;;15.29;73.65;99141.97;5086364;28;45427;-78
2021/10/30 06:12:41;;;;;;;;;8.00;7.00;;;;;15.29;73.79;99142.78;5081717;28;45550;-77
2021/10/30 06:15:08;;;;;;;;;7.50;6.00;;;;;15.23;73.77;99138.22;5078796;28;45951;-77
2021/10/30 06:17:34;;;;;;;;;6.25;6.00;;;;;15.23;73.66;99132.94;5085010;28;45613;-76
2021/10/30 06:19:59;;;;;;;;;8.75;7.75;;;;;15.32;74.00;99142.47;5095134;28;45560;-77
2021/10/30 06:22:24;;;;;;;;;6.50;6.25;;;;;15.30;73.99;99143.63;5088124;28;46049;-76
2021/10/30 06:24:50;;;;;;;;;7.00;7.00;;;;;15.34;73.84;99143.09;5084803;28;45585;-77
2021/10/30 06:30:37;;;;;;;;;5.00;5.00;;;;;15.37;73.78;99148.03;5085539;28;46100;-77
2021/10/30 06:33:02;;;;;;;;;6.25;6.25;;;;;15.37;73.81;99141.94;5090063;28;46325;-77
2021/10/30 06:35:28;;;;;;;;;8.00;7.75;;;;;15.36;73.91;99135.00;5084051;28;45526;-77
2021/10/30 06:37:55;;;;;;;;;7.75;6.00;;;;;15.39;73.99;99140.75;5084083;28;45818;-76
2021/10/30 06:40:21;;;;;;;;;6.25;6.00;;;;;15.39;73.90;99140.75;5066659;28;46687;-79
2021/10/30 06:42:46;;;;;;;;;9.00;8.00;;;;;15.41;73.86;99144.03;5068563;28;46997;-78
2021/10/30 06:45:11;;;;;;;;;7.75;7.00;;;;;15.42;73.98;99137.78;5079114;28;45855;-77
2021/10/30 06:47:37;;;;;;;;;6.25;6.25;;;;;15.42;73.97;99153.59;5077803;28;45534;-79
2021/10/30 06:50:06;;;;;;;;;5.00;5.00;;;;;15.31;73.88;99127.63;5059729;28;47277;-79
2021/10/30 06:52:38;;;;;;;;;6.00;6.00;;;;;15.38;74.07;99133.03;5059903;28;46525;-79
2021/10/30 06:55:09;;;;;;;;;7.00;7.00;;;;;15.35;73.87;99120.97;5060154;28;45566;-78
2021/10/30 07:00:57;;;;;;;;;7.00;6.00;;;;;15.30;74.05;99115.41;5076583;28;45433;-77
2021/10/30 07:03:23;;;;;;;;;5.00;5.00;;;;;15.42;74.06;99126.38;5076752;28;45937;-78
2021/10/30 07:05:49;;;;;;;;;5.50;5.50;;;;;15.35;74.22;99101.69;5076148;28;45738;-75
2021/10/30 07:08:14;;;;;;;;;5.00;5.00;;;;;15.49;73.90;99129.97;5076236;28;45581;-77
2021/10/30 07:10:40;;;;;;;;;5.00;4.25;;;;;15.49;74.02;99127.34;5076053;28;46417;-78
2021/10/30 07:13:06;;;;;;;;;6.50;6.00;;;;;15.42;74.13;99116.66;5076270;28;45573;-76
2021/10/30 07:15:35;;;;;;;;;4.00;4.00;;;;;15.48;74.28;99125.69;5076344;28;45710;-77
2021/10/30 07:18:00;;;;;;;;;18.25;16.25;;;;;15.50;74.09;99131.59;5076927;28;45550;-76
2021/10/30 07:20:25;;;;;;;;;4.00;4.00;;;;;15.43;73.85;99120.13;5076502;28;45590;-77
2021/10/30 07:22:51;;;;;;;;;5.75;5.25;;;;;15.35;74.03;99106.97;5076175;28;45969;-78
2021/10/30 07:25:22;;;;;;;;;4.50;4.50;;;;;15.50;74.09;99126.31;5076612;28;45455;-77
2021/10/30 07:31:09;;;;;;;;;6.00;5.00;;;;;15.53;74.06;99128.66;5063073;28;46118;-76
2021/10/30 07:33:34;;;;;;;;;4.75;4.50;;;;;15.52;73.99;99127.81;5055993;28;46449;-78
2021/10/30 07:36:00;;;;;;;;;5.00;5.00;;;;;15.48;74.15;99117.75;5056034;28;45560;-78
2021/10/30 07:38:25;;;;;;;;;5.50;4.25;;;;;15.51;73.92;99117.41;5056323;28;45802;-78
2021/10/30 07:40:51;;;;;;;;;3.75;3.75;;;;;15.55;74.09;99131.91;5055516;28;45601;-78
2021/10/30 07:43:17;;;;;;;;;6.00;5.25;;;;;15.57;73.83;99132.56;5055350;28;46928;-78
2021/10/30 07:45:42;;;;;;;;;4.25;4.00;;;;;15.54;73.94;99135.56;5055712;28;45662;-79
2021/10/30 07:48:13;;;;;;;;;4.50;4.50;;;;;15.55;73.94;99136.41;5055863;28;45877;-79
2021/10/30 07:50:41;;;;;;;;;7.25;4.75;;;;;15.55;73.85;99146.97;5061953;28;46814;-79
2021/10/30 07:53:14;;;;;;;;;4.75;4.50;;;;;15.47;73.84;99131.94;5075418;28;46488;-78
2021/10/30 07:58:51;;;;;;;;;5.50;5.00;;;;;15.33;74.00;99104.50;5075802;28;45456;-80
2021/10/30 08:01:17;;;;;;;;;3.00;3.00;;;;;15.36;73.60;99124.44;5075365;28;45484;-80
2021/10/30 08:03:43;;;;;;;;;4.50;4.50;;;;;15.48;73.57;99152.91;5076111;28;45594;-80
2021/10/30 08:06:09;;;;;;;;;4.00;4.00;;;;;15.53;73.96;99149.75;5075964;28;45675;-78
2021/10/30 08:08:34;;;;;;;;;5.00;4.50;;;;;15.35;73.84;99120.97;5076008;28;45664;-77
2021/10/30 08:14:30;;;;;;;;;6.00;6.00;;;;;15.73;73.59;99177.31;5075799;28;45965;-81
2021/10/30 08:16:56;;;;;;;;;5.00;4.00;;;;;15.76;73.64;99189.38;5057266;28;45732;-79
2021/10/30 08:19:21;;;;;;;;;6.75;6.00;;;;;15.69;73.66;99162.00;5057437;28;45500;-80
2021/10/30 08:21:48;;;;;;;;;6.25;6.00;;;;;15.66;73.93;99155.25;5057487;28;48371;-78
2021/10/30 08:24:13;;;;;;;;;5.75;5.75;;;;;15.70;73.79;99161.03;5074007;28;46979;-78
2021/10/30 08:30:02;;;;;;;;;5.00;5.00;;;;;15.65;73.47;99135.16;5075179;27;45530;-81
2021/10/30 08:32:28;;;;;;;;;4.75;4.00;;;;;15.47;73.57;99105.56;5040169;28;47383;-78
2021/10/30 08:34:54;;;;;;;;;4.25;3.00;;;;;15.97;73.68;99181.59;5058536;28;47382;-78
2021/10/30 08:37:19;;;;;;;;;5.25;4.75;;;;;15.92;73.74;99174.19;5057610;28;45834;-79
2021/10/30 08:39:45;;;;;;;;;6.00;5.00;;;;;15.89;73.54;99165.81;5075665;28;45956;-79
2021/10/30 08:45:32;;;;;;;;;23.75;22.25;;;;;15.85;73.74;99154.78;5075639;28;45702;-77
2021/10/30 08:48:00;;;;;;;;;5.00;4.00;;;;;16.05;73.58;99181.50;5075163;28;45587;-78
2021/10/30 08:50:27;;;;;;;;;6.50;5.25;;;;;16.16;73.61;99182.91;5057286;28;45938;-79
2021/10/30 08:52:52;;;;;;;;;6.75;6.00;;;;;16.18;73.82;99187.00;5075797;28;45745;-77
2021/10/30 08:55:18;;;;;;;;;5.25;5.25;;;;;16.23;73.53;99184.66;5074680;28;46367;-77
2021/10/30 09:01:09;;;;;;;;;3.75;3.75;;;;;16.26;73.77;99186.91;5076310;28;45554;-79
2021/10/30 09:03:36;;;;;;;;;4.00;4.00;;;;;16.27;73.88;99191.22;5077763;28;45658;-78
2021/10/30 09:06:04;;;;;;;;;5.25;5.00;;;;;16.30;73.68;99195.34;5078996;28;45503;-79
2021/10/30 09:08:32;;;;;;;;;6.00;5.00;;;;;16.24;73.71;99177.53;5078419;28;45621;-78
2021/10/30 09:11:08;;;;;;;;;4.00;4.00;;;;;16.04;73.68;99142.88;5077426;28;45762;-79
2021/10/30 09:17:12;;;;;;;;;5.50;5.50;;;;;16.38;73.63;99188.13;5075179;28;45484;-78
2021/10/30 09:19:49;;;;;;;;;5.00;4.75;;;;;16.38;73.71;99189.94;5075351;28;45535;-79
2021/10/30 09:22:17;;;;;;;;;5.75;4.25;;;;;16.40;73.48;99187.13;5074930;28;45711;-77
2021/10/30 09:24:58;;;;;;;;;4.00;4.00;;;;;16.41;73.43;99186.94;5075026;28;45779;-78
2021/10/30 09:27:45;;;;;;;;;4.25;4.00;;;;;16.42;73.61;99193.88;5074234;28;47032;-80
2021/10/30 09:30:15;;;;;;;;;5.00;5.00;;;;;16.43;73.85;99208.72;5074606;28;45570;-78
2021/10/30 09:32:49;;;;;;;;;4.50;4.00;;;;;16.39;73.51;99199.53;5074472;28;45691;-78
2021/10/30 09:35:24;;;;;;;;;5.00;4.50;;;;;16.36;73.54;99200.69;5074361;28;45561;-78
2021/10/30 09:37:51;;;;;;;;;4.50;4.00;;;;;16.41;73.62;99202.00;5074398;28;47121;-80
2021/10/30 09:40:28;;;;;;;;;6.25;5.25;;;;;16.39;73.90;99194.25;5074400;28;45712;-79
2021/10/30 09:43:11;;;;;;;;;5.00;5.00;;;;;16.45;73.91;99209.38;5072994;28;45746;-79
2021/10/30 09:45:45;;;;;;;;;7.00;5.25;;;;;16.44;73.73;99198.97;5074565;28;46857;-78
2021/10/30 09:48:11;;;;;;;;;4.50;4.25;;;;;16.44;73.66;99202.44;5074509;28;47045;-79
2021/10/30 09:50:36;;;;;;;;;13.25;12.00;;;;;16.36;73.83;99186.66;5074589;28;45663;-81
2021/10/30 09:53:32;;;;;;;;;6.25;6.25;;;;;16.47;73.50;99209.19;5074214;28;45519;-81
2021/10/30 09:56:05;;;;;;;;;5.25;5.25;;;;;16.45;73.95;99201.44;5058148;28;47945;-81
2021/10/30 09:58:32;;;;;;;;;10.00;9.00;;;;;16.48;73.65;99203.72;5079399;28;47365;-80
2021/10/30 10:01:02;;;;;;;;;7.00;6.00;;;;;16.43;73.83;99198.16;5059489;28;45794;-78
2021/10/30 10:03:29;;;;;;;;;9.75;7.25;;;;;16.51;73.73;99206.00;5078130;28;45739;-82
2021/10/30 10:05:56;;;;;;;;;9.25;7.00;;;;;16.53;73.78;99209.28;5077728;28;45524;-81
2021/10/30 10:08:23;;;;;;;;;8.75;6.50;;;;;16.45;73.57;99198.81;5079886;28;45889;-80
2021/10/30 10:10:49;;;;;;;;;4.00;4.00;;;;;16.53;73.63;99213.75;5078276;28;45827;-78
2021/10/30 10:13:15;;;;;;;;;5.00;5.00;;;;;16.51;73.75;99216.59;5078328;28;45650;-80
2021/10/30 10:15:45;;;;;;;;;6.00;5.75;;;;;16.30;73.81;99185.56;5077358;28;46466;-79
2021/10/30 10:18:11;;;;;;;;;4.25;4.00;;;;;16.47;73.87;99214.47;5077502;28;46371;-82
2021/10/30 10:20:37;;;;;;;;;4.25;4.00;;;;;16.46;73.62;99229.53;5077870;28;45655;-81
2021/10/30 10:23:03;;;;;;;;;4.00;3.75;;;;;16.48;73.76;99231.97;5077611;28;45631;-80
2021/10/30 10:25:34;;;;;;;;;5.75;5.75;;;;;16.41;73.77;99209.94;5077469;28;45616;-81
2021/10/30 10:28:43;;;;;;;;;5.00;5.00;;;;;16.49;73.88;99228.34;5077239;28;47037;-79
2021/10/30 10:31:23;;;;;;;;;5.00;5.00;;;;;16.47;73.57;99228.50;4994595;28;45573;-79
2021/10/30 10:34:12;;;;;;;;;5.00;4.50;;;;;16.53;73.67;99232.25;4994832;28;45762;-77
2021/10/30 10:36:40;;;;;;;;;5.75;5.00;;;;;16.42;73.80;99212.38;4994709;28;47499;-79
2021/10/30 10:39:05;;;;;;;;;5.00;5.00;;;;;16.54;73.91;99233.91;4994786;28;46432;-80
2021/10/30 10:41:43;;;;;;;;;7.00;6.00;;;;;16.56;73.94;99230.09;4994833;28;45848;-79
2021/10/30 10:44:11;;;;;;;;;4.00;4.00;;;;;16.54;73.96;99224.16;4994851;28;45778;-81
2021/10/30 10:46:40;;;;;;;;;6.50;6.00;;;;;16.57;74.07;99223.78;4994326;28;46319;-79
2021/10/30 10:49:42;;;;;;;;;6.50;6.00;;;;;16.64;74.03;99234.47;4995485;28;46321;-81
2021/10/30 10:54:55;;;;;;;;;6.00;6.00;;;;;16.69;73.76;99240.88;4990264;28;45650;-78
2021/10/30 11:01:07;;;;;;;;;17.50;16.50;;;;;16.71;73.86;99236.22;4993964;28;45752;-79
2021/10/30 11:03:45;;;;;;;;;8.00;7.75;;;;;16.74;73.91;99230.56;4916801;28;45683;-80
2021/10/30 11:06:11;;;;;;;;;7.00;6.75;;;;;16.70;73.83;99221.38;4935220;28;45948;-82
2021/10/30 11:08:37;;;;;;;;;7.00;7.00;;;;;16.77;73.98;99230.22;4958608;28;46449;-80
2021/10/30 11:11:14;;;;;;;;;9.25;9.00;;;;;16.80;73.70;99226.38;4974632;28;45807;-80
2021/10/30 11:17:05;;;;;;;;;31.50;27.00;;;;;16.85;73.91;99218.72;4973897;28;45731;-78
2021/10/30 11:19:36;;;;;;;;;21.25;19.75;;;;;16.81;73.44;99221.91;4974865;28;45645;-81
2021/10/30 11:22:11;;;;;;;;;33.50;26.75;;;;;16.86;73.81;99220.34;4974040;28;46348;-80
2021/10/30 11:24:51;;;;;;;;;47.75;38.00;;;;;16.88;73.96;99217.53;4974610;28;45704;-78
2021/10/30 11:27:19;;;;;;;;;13.50;13.00;;;;;16.90;73.61;99216.31;4974385;28;45934;-79
2021/10/30 11:33:27;;;;;;;;;22.75;20.25;;;;;16.93;73.82;99221.28;4967552;28;45883;-79
2021/10/30 11:36:07;;;;;;;;;10.00;10.00;;;;;16.94;73.95;99214.97;4974489;28;45758;-79
2021/10/30 11:38:53;;;;;;;;;7.25;6.50;;;;;16.93;73.66;99208.03;4974580;28;45648;-78
2021/10/30 11:41:23;;;;;;;;;14.00;12.50;;;;;16.94;74.09;99220.28;5039085;28;47463;-78
2021/10/30 11:43:56;;;;;;;;;11.00;10.00;;;;;16.94;73.58;99211.50;5056395;28;46047;-79
2021/10/30 11:46:23;;;;;;;;;8.75;7.75;;;;;17.00;74.04;99202.84;5055954;28;45507;-78
2021/10/30 11:48:57;;;;;;;;;7.50;7.25;;;;;17.02;74.02;99203.47;5055943;28;45795;-79
2021/10/30 11:51:28;;;;;;;;;7.00;7.00;;;;;17.05;73.85;99224.28;5055976;28;46369;-78
2021/10/30 11:53:55;;;;;;;;;11.75;10.00;;;;;17.06;73.97;99212.66;5046812;28;46689;-77
2021/10/30 11:56:26;;;;;;;;;16.00;14.50;;;;;17.03;73.89;99194.53;5055305;28;45702;-79
2021/10/30 11:59:10;;;;;;;;;7.75;7.50;;;;;17.12;74.06;99211.94;5036811;28;45547;-79
2021/10/30 12:01:47;;;;;;;;;7.75;6.75;;;;;17.13;73.98;99200.34;5056010;28;46617;-78
2021/10/30 12:04:18;;;;;;;;;15.50;10.25;;;;;17.17;73.97;99206.91;5038565;28;46429;-79
2021/10/30 12:06:50;;;;;;;;;7.75;7.75;;;;;17.07;73.54;99183.38;5056499;28;45646;-77
2021/10/30 12:09:19;;;;;;;;;12.50;12.50;;;;;17.25;73.99;99201.50;5057110;28;45791;-79
2021/10/30 12:11:46;;;;;;;;;16.25;13.75;;;;;17.30;74.04;99207.06;5038699;28;47504;-79
2021/10/30 12:14:11;;;;;;;;;9.00;9.00;;;;;17.36;73.58;99202.84;5056680;28;45582;-78
2021/10/30 12:16:38;;;;;;;;;8.50;8.50;;;;;17.37;73.47;99196.56;5056535;28;45534;-77
2021/10/30 12:19:05;;;;;;;;;8.00;7.00;;;;;17.46;73.65;99214.78;5057039;28;45646;-77
2021/10/30 12:21:33;;;;;;;;;5.00;4.75;;;;;17.49;73.91;99211.75;5047606;28;47568;-78
2021/10/30 12:24:02;;;;;;;;;34.50;30.00;;;;;17.56;73.90;99214.47;5065569;28;46224;-80
2021/10/30 12:26:30;;;;;;;;;7.25;6.25;;;;;17.59;73.74;99214.97;5070009;28;45328;-79
2021/10/30 12:29:16;;;;;;;;;5.75;5.00;;;;;17.65;73.92;99212.56;5073156;28;45662;-79
2021/10/30 12:31:54;;;;;;;;;7.50;5.25;;;;;17.59;73.83;99214.09;5074840;28;45633;-78
2021/10/30 12:34:24;;;;;;;;;8.00;8.00;;;;;17.65;73.77;99226.63;5072979;28;45830;-81
2021/10/30 12:36:50;;;;;;;;;5.00;5.00;;;;;17.63;73.46;99215.41;5073279;28;45587;-82
2021/10/30 12:39:20;;;;;;;;;4.00;4.00;;;;;17.68;73.49;99225.41;5073918;28;45005;-77
2021/10/30 12:41:59;;;;;;;;;4.00;3.00;;;;;17.63;73.22;99220.69;5067500;28;47602;-77
2021/10/30 12:44:39;;;;;;;;;8.75;7.75;;;;;17.67;73.34;99229.91;5068898;28;47205;-77
2021/10/30 12:47:26;;;;;;;;;5.00;5.00;;;;;17.63;73.53;99217.22;5069062;28;45637;-76
2021/10/30 12:49:57;;;;;;;;;5.00;4.00;;;;;17.68;73.12;99223.59;5048548;28;45642;-75
2021/10/30 12:52:23;;;;;;;;;6.50;5.50;;;;;17.67;73.55;99223.78;5060453;28;45593;-77
2021/10/30 12:54:56;;;;;;;;;5.00;4.75;;;;;17.68;73.19;99214.81;5054513;28;47232;-77
2021/10/30 12:57:26;;;;;;;;;4.75;4.75;;;;;17.77;73.41;99227.75;5054329;28;45662;-76
2021/10/30 13:00:10;;;;;;;;;4.50;4.50;;;;;17.82;72.99;99240.44;5054130;28;45848;-76
2021/10/30 13:02:38;;;;;;;;;3.00;3.00;;;;;17.83;72.92;99228.81;5054660;28;46722;-78
2021/10/30 13:05:18;;;;;;;;;3.00;3.00;;;;;17.77;73.07;99217.16;5054893;28;45996;-77